createdAt,value
2017-11-20T00:15:49.685Z,5.70
2017-11-20T00:16:54.008Z,5.80
2017-11-20T00:17:58.362Z,5.80
2017-11-20T00:19:02.650Z,5.80
2017-11-20T00:20:08.203Z,5.70
2017-11-20T00:21:13.060Z,5.70
2017-11-20T00:22:17.470Z,5.70
2017-11-20T00:23:21.843Z,5.70
2017-11-20T00:24:26.547Z,5.70
2017-11-20T00:25:30.962Z,5.60
2017-11-20T00:26:35.770Z,5.60
2017-11-20T00:27:40.111Z,5.60
2017-11-20T00:28:44.496Z,5.50
2017-11-20T00:29:48.785Z,5.50
2017-11-20T00:30:53.842Z,5.50
2017-11-20T00:31:58.581Z,5.50
2017-11-20T00:33:03.627Z,5.50
2017-11-20T00:34:08.184Z,5.50
2017-11-20T00:35:12.505Z,5.60
2017-11-20T00:36:16.829Z,5.50
2017-11-20T00:37:23.082Z,5.50
2017-11-20T00:38:27.868Z,5.40
2017-11-20T00:39:33.852Z,5.40
2017-11-20T00:40:39.988Z,5.50
2017-11-20T00:41:45.945Z,5.60
2017-11-20T00:42:51.178Z,5.60
2017-11-20T00:43:55.581Z,5.50
2017-11-20T00:44:59.995Z,5.50
2017-11-20T00:46:05.582Z,5.60
2017-11-20T00:47:11.260Z,5.50
2017-11-20T00:48:17.967Z,5.50
2017-11-20T00:49:24.123Z,5.50
2017-11-20T00:50:28.437Z,5.60
2017-11-20T00:51:33.911Z,5.60
2017-11-20T00:52:38.318Z,5.60
2017-11-20T00:53:42.722Z,5.50
2017-11-20T00:54:48.018Z,5.50
2017-11-20T00:55:53.145Z,5.50
2017-11-20T00:56:58.211Z,5.50
2017-11-20T00:58:02.557Z,5.50
2017-11-20T00:59:07.318Z,5.50
2017-11-20T01:00:13.004Z,5.50
2017-11-20T01:01:17.335Z,5.50
2017-11-20T01:02:21.666Z,5.50
2017-11-20T01:03:26.508Z,5.50
2017-11-20T01:04:31.291Z,5.40
2017-11-20T01:05:36.328Z,5.50
2017-11-20T01:06:41.480Z,5.50
2017-11-20T01:07:47.196Z,5.50
2017-11-20T01:08:52.696Z,5.50
2017-11-20T01:09:57.236Z,5.50
2017-11-20T01:11:02.302Z,5.40
2017-11-20T01:12:07.797Z,5.50
2017-11-20T01:13:13.261Z,5.40
2017-11-20T01:14:17.714Z,5.50
2017-11-20T01:15:23.080Z,5.40
2017-11-20T01:16:27.375Z,5.50
2017-11-20T01:17:32.446Z,5.60
2017-11-20T01:18:36.784Z,5.60
2017-11-20T01:19:41.090Z,5.60
2017-11-20T01:20:45.492Z,5.60
2017-11-20T01:21:49.861Z,5.70
2017-11-20T01:22:55.484Z,5.70
2017-11-20T01:24:00.493Z,5.60
2017-11-20T01:25:04.886Z,5.60
2017-11-20T01:26:10.640Z,5.70
2017-11-20T01:27:15.741Z,5.60
2017-11-20T01:28:20.030Z,5.60
2017-11-20T01:29:24.396Z,5.70
2017-11-20T01:30:30.763Z,5.70
2017-11-20T01:31:35.147Z,5.70
2017-11-20T01:32:40.557Z,5.70
2017-11-20T01:33:46.444Z,5.70
2017-11-20T01:34:52.724Z,5.60
2017-11-20T01:35:57.462Z,5.70
2017-11-20T01:37:01.857Z,5.80
2017-11-20T01:38:06.613Z,5.80
2017-11-20T01:39:12.412Z,5.80
2017-11-20T01:40:17.614Z,5.80
2017-11-20T01:41:24.322Z,5.90
2017-11-20T01:42:29.472Z,5.90
2017-11-20T01:43:33.977Z,5.90
2017-11-20T01:44:38.394Z,5.80
2017-11-20T01:45:43.562Z,5.80
2017-11-20T01:46:47.882Z,5.70
2017-11-20T01:47:52.208Z,5.70
2017-11-20T01:48:58.722Z,5.80
2017-11-20T01:50:03.905Z,5.80
2017-11-20T01:51:08.615Z,5.90
2017-11-20T01:52:13.545Z,5.90
2017-11-20T01:53:21.500Z,5.90
2017-11-20T01:54:26.272Z,6.00
2017-11-20T01:55:31.402Z,5.90
2017-11-20T01:56:40.192Z,5.90
2017-11-20T01:57:45.475Z,5.90
2017-11-20T01:58:49.918Z,6.00
2017-11-20T01:59:54.327Z,6.00
2017-11-20T02:00:59.262Z,5.90
2017-11-20T02:02:05.857Z,5.80
2017-11-20T02:03:10.688Z,5.80
2017-11-20T02:04:15.409Z,5.80
2017-11-20T02:05:20.591Z,5.80
2017-11-20T02:06:24.921Z,5.80
2017-11-20T02:07:31.208Z,5.70
2017-11-20T02:08:35.524Z,5.70
2017-11-20T02:09:39.879Z,5.70
2017-11-20T02:10:44.943Z,5.60
2017-11-20T02:11:49.325Z,5.60
2017-11-20T02:12:54.451Z,5.70
2017-11-20T02:14:00.270Z,5.70
2017-11-20T02:15:04.787Z,5.60
2017-11-20T02:16:09.208Z,5.70
2017-11-20T02:17:14.305Z,5.70
2017-11-20T02:18:18.635Z,5.70
2017-11-20T02:19:24.293Z,5.70
2017-11-20T02:20:30.216Z,5.80
2017-11-20T02:21:34.700Z,5.80
2017-11-20T02:22:39.438Z,5.80
2017-11-20T02:23:46.443Z,6.00
2017-11-20T02:24:51.383Z,5.90
2017-11-20T02:25:55.907Z,5.90
2017-11-20T02:27:00.282Z,5.80
2017-11-20T02:28:06.002Z,5.90
2017-11-20T02:29:11.250Z,5.90
2017-11-20T02:30:17.305Z,5.90
2017-11-20T02:31:21.983Z,5.90
2017-11-20T02:32:27.813Z,5.90
2017-11-20T02:33:33.435Z,5.80
2017-11-20T02:34:39.273Z,5.70
2017-11-20T02:35:43.757Z,5.70
2017-11-20T02:36:48.266Z,5.70
2017-11-20T02:37:52.723Z,5.80
2017-11-20T02:38:58.432Z,5.80
2017-11-20T02:40:02.972Z,5.80
2017-11-20T02:41:07.470Z,5.70
2017-11-20T02:42:22.213Z,5.70
2017-11-20T02:43:28.226Z,5.70
2017-11-20T02:44:33.954Z,5.60
2017-11-20T02:45:39.078Z,5.50
2017-11-20T02:46:44.783Z,5.50
2017-11-20T02:47:49.620Z,5.40
2017-11-20T02:48:54.048Z,5.50
2017-11-20T02:49:59.301Z,5.60
2017-11-20T02:51:05.106Z,5.60
2017-11-20T02:52:09.980Z,5.60
2017-11-20T02:53:14.668Z,5.60
2017-11-20T02:54:19.777Z,5.60
2017-11-20T02:55:25.153Z,5.60
2017-11-20T02:56:29.695Z,5.60
2017-11-20T02:57:34.675Z,5.50
2017-11-20T02:58:39.127Z,5.50
2017-11-20T02:59:44.489Z,5.50
2017-11-20T03:00:50.707Z,5.50
2017-11-20T03:02:03.448Z,5.60
2017-11-20T03:03:08.786Z,5.60
2017-11-20T03:04:13.886Z,5.70
2017-11-20T03:05:18.206Z,5.70
2017-11-20T03:06:22.541Z,5.70
2017-11-20T03:07:28.417Z,5.70
2017-11-20T03:08:32.773Z,5.60
2017-11-20T03:09:37.873Z,5.70
2017-11-20T03:10:42.742Z,5.70
2017-11-20T03:11:47.093Z,5.70
2017-11-20T03:12:51.439Z,5.60
2017-11-20T03:13:57.957Z,5.60
2017-11-20T03:15:02.343Z,5.50
2017-11-20T03:16:07.596Z,5.60
2017-11-20T03:17:12.035Z,5.60
2017-11-20T03:18:16.371Z,5.50
2017-11-20T03:19:21.564Z,5.50
2017-11-20T03:20:26.391Z,5.40
2017-11-20T03:21:31.697Z,5.40
2017-11-20T03:22:36.787Z,5.40
2017-11-20T03:23:41.162Z,5.40
2017-11-20T03:24:46.097Z,5.40
2017-11-20T03:25:51.638Z,5.40
2017-11-20T03:26:57.411Z,5.40
2017-11-20T03:28:02.041Z,5.40
2017-11-20T03:29:06.370Z,5.40
2017-11-20T03:30:10.854Z,5.40
2017-11-20T03:31:15.201Z,5.30
2017-11-20T03:32:20.345Z,5.20
2017-11-20T03:33:25.444Z,5.20
2017-11-20T03:34:29.786Z,5.20
2017-11-20T03:35:34.228Z,5.20
2017-11-20T03:36:39.017Z,5.20
2017-11-20T03:37:43.466Z,5.20
2017-11-20T03:38:48.582Z,5.30
2017-11-20T03:39:52.858Z,5.30
2017-11-20T03:40:58.912Z,5.30
2017-11-20T03:42:04.256Z,5.20
2017-11-20T03:43:08.712Z,5.30
2017-11-20T03:45:29.897Z,5.20
2017-11-20T03:46:34.217Z,5.20
2017-11-20T03:47:39.160Z,5.30
2017-11-20T03:48:44.564Z,5.30
2017-11-20T03:49:49.222Z,5.30
2017-11-20T03:50:54.669Z,5.30
2017-11-20T03:52:00.156Z,5.30
2017-11-20T03:53:04.552Z,5.30
2017-11-20T03:54:09.172Z,5.30
2017-11-20T03:55:13.475Z,5.30
2017-11-20T03:56:17.886Z,5.30
2017-11-20T03:57:22.498Z,5.30
2017-11-20T03:58:27.023Z,5.30
2017-11-20T03:59:31.804Z,5.30
2017-11-20T04:00:36.155Z,5.30
2017-11-20T04:01:40.653Z,5.40
2017-11-20T04:02:46.116Z,5.40
2017-11-20T04:03:50.497Z,5.40
2017-11-20T04:04:54.854Z,5.50
2017-11-20T04:06:00.570Z,5.50
2017-11-20T04:07:04.884Z,5.50
2017-11-20T04:08:10.277Z,5.50
2017-11-20T04:09:14.627Z,5.40
2017-11-20T04:10:19.730Z,5.50
2017-11-20T04:11:24.843Z,5.40
2017-11-20T04:12:29.175Z,5.50
2017-11-20T04:13:33.612Z,5.50
2017-11-20T04:14:37.968Z,5.40
2017-11-20T04:15:42.322Z,5.40
2017-11-20T04:16:47.744Z,5.50
2017-11-20T04:17:52.834Z,5.50
2017-11-20T04:18:57.636Z,5.40
2017-11-20T04:20:02.380Z,5.50
2017-11-20T04:21:06.699Z,5.50
2017-11-20T04:22:11.081Z,5.50
2017-11-20T04:23:15.717Z,5.50
2017-11-20T04:24:20.075Z,5.50
2017-11-20T04:25:24.737Z,5.40
2017-11-20T04:26:29.099Z,5.50
2017-11-20T04:27:34.063Z,5.50
2017-11-20T04:28:38.917Z,5.50
2017-11-20T04:29:43.476Z,5.50
2017-11-20T04:30:47.956Z,5.50
2017-11-20T04:31:52.362Z,5.50
2017-11-20T04:32:56.763Z,5.50
2017-11-20T04:34:01.577Z,5.50
2017-11-20T04:35:06.242Z,5.50
2017-11-20T04:36:10.650Z,5.40
2017-11-20T04:37:15.206Z,5.40
2017-11-20T04:38:20.348Z,5.40
2017-11-20T04:39:25.676Z,5.40
2017-11-20T04:40:30.818Z,5.40
2017-11-20T04:41:35.199Z,5.40
2017-11-20T04:42:40.696Z,5.50
2017-11-20T04:43:45.834Z,5.50
2017-11-20T04:44:50.298Z,5.50
2017-11-20T04:45:55.098Z,5.40
2017-11-20T04:47:00.185Z,5.50
2017-11-20T04:48:04.515Z,5.50
2017-11-20T04:49:09.849Z,5.50
2017-11-20T04:50:14.254Z,5.40
2017-11-20T04:51:19.116Z,5.50
2017-11-20T04:52:23.449Z,5.40
2017-11-20T04:53:27.778Z,5.50
2017-11-20T04:54:32.185Z,5.50
2017-11-20T04:55:36.568Z,5.50
2017-11-20T04:56:41.259Z,5.50
2017-11-20T04:57:45.563Z,5.50
2017-11-20T04:58:49.856Z,5.50
2017-11-20T04:59:54.956Z,5.50
2017-11-20T05:00:59.523Z,5.50
2017-11-20T05:02:03.823Z,5.50
2017-11-20T05:03:08.112Z,5.50
2017-11-20T05:04:13.195Z,5.60
2017-11-20T05:05:17.543Z,5.50
2017-11-20T05:06:22.626Z,5.60
2017-11-20T05:07:26.946Z,5.60
2017-11-20T05:08:31.241Z,5.60
2017-11-20T05:09:35.506Z,5.50
2017-11-20T05:10:39.742Z,5.50
2017-11-20T05:11:44.048Z,5.50
2017-11-20T05:12:48.351Z,5.50
2017-11-20T05:13:52.847Z,5.60
2017-11-20T05:14:57.224Z,5.60
2017-11-20T05:16:02.237Z,5.60
2017-11-20T05:17:06.984Z,5.60
2017-11-20T05:18:11.328Z,5.60
2017-11-20T05:19:15.604Z,5.60
2017-11-20T05:20:20.153Z,5.60
2017-11-20T05:21:24.461Z,5.60
2017-11-20T05:22:28.723Z,5.60
2017-11-20T05:23:33.030Z,5.60
2017-11-20T05:24:37.351Z,5.60
2017-11-20T05:25:41.694Z,5.60
2017-11-20T05:26:46.232Z,5.60
2017-11-20T05:27:51.533Z,5.50
2017-11-20T05:28:55.956Z,5.60
2017-11-20T05:30:00.292Z,5.60
2017-11-20T05:31:05.400Z,5.60
2017-11-20T05:32:09.673Z,5.50
2017-11-20T05:33:14.551Z,5.60
2017-11-20T05:34:19.919Z,5.50
2017-11-20T05:35:24.634Z,5.50
2017-11-20T05:36:29.173Z,5.50
2017-11-20T05:37:33.539Z,5.50
2017-11-20T05:38:38.117Z,5.50
2017-11-20T05:39:43.203Z,5.50
2017-11-20T05:40:47.517Z,5.50
2017-11-20T05:41:51.807Z,5.50
2017-11-20T05:42:56.535Z,5.50
2017-11-20T05:44:00.833Z,5.50
2017-11-20T05:45:05.273Z,5.40
2017-11-20T05:46:09.651Z,5.40
2017-11-20T05:47:13.944Z,5.40
2017-11-20T05:48:18.245Z,5.40
2017-11-20T05:49:22.792Z,5.40
2017-11-20T05:50:27.162Z,5.40
2017-11-20T05:51:31.459Z,5.50
2017-11-20T05:52:35.815Z,5.50
2017-11-20T05:53:40.146Z,5.50
2017-11-20T05:54:44.535Z,5.50
2017-11-20T05:55:48.815Z,5.50
2017-11-20T05:56:53.136Z,5.60
2017-11-20T05:57:57.480Z,5.60
2017-11-20T05:59:01.856Z,5.60
2017-11-20T06:00:06.207Z,5.60
2017-11-20T06:01:11.391Z,5.60
2017-11-20T06:02:15.660Z,5.60
2017-11-20T06:03:19.975Z,5.60
2017-11-20T06:04:24.240Z,5.60
2017-11-20T06:05:28.860Z,5.60
2017-11-20T06:06:33.914Z,5.70
2017-11-20T06:07:41.665Z,5.70
2017-11-20T06:08:46.033Z,5.70
2017-11-20T06:09:52.532Z,5.70
2017-11-20T06:10:57.118Z,5.70
2017-11-20T06:12:02.094Z,5.70
2017-11-20T06:13:06.828Z,5.70
2017-11-20T06:14:11.252Z,5.70
2017-11-20T06:15:15.742Z,5.60
2017-11-20T06:16:20.386Z,5.50
2017-11-20T06:17:24.677Z,5.50
2017-11-20T06:18:29.093Z,5.50
2017-11-20T06:19:33.592Z,5.50
2017-11-20T06:20:37.990Z,5.60
2017-11-20T06:21:42.738Z,5.60
2017-11-20T06:22:47.053Z,5.60
2017-11-20T06:23:52.092Z,5.60
2017-11-20T06:24:56.591Z,5.60
2017-11-20T06:26:01.442Z,5.60
2017-11-20T06:27:06.003Z,5.60
2017-11-20T06:28:10.378Z,5.60
2017-11-20T06:29:15.653Z,5.70
2017-11-20T06:30:20.152Z,5.70
2017-11-20T06:31:26.119Z,5.70
2017-11-20T06:32:31.303Z,5.70
2017-11-20T06:33:35.834Z,5.70
2017-11-20T06:34:40.322Z,5.80
2017-11-20T06:35:45.551Z,5.80
2017-11-20T06:36:50.729Z,5.90
2017-11-20T06:37:55.234Z,5.80
2017-11-20T06:38:59.607Z,5.90
2017-11-20T06:40:04.889Z,5.90
2017-11-20T06:41:09.318Z,5.90
2017-11-20T06:42:14.486Z,5.90
2017-11-20T06:43:18.820Z,5.90
2017-11-20T06:44:23.386Z,6.00
2017-11-20T06:45:28.061Z,6.00
2017-11-20T06:46:32.691Z,6.00
2017-11-20T06:47:37.181Z,6.00
2017-11-20T06:48:41.848Z,6.00
2017-11-20T06:49:50.466Z,6.00
2017-11-20T06:50:55.143Z,6.00
2017-11-20T06:52:00.516Z,6.00
2017-11-20T06:53:05.026Z,6.00
2017-11-20T06:54:09.578Z,6.00
2017-11-20T06:55:14.346Z,6.00
2017-11-20T06:56:18.824Z,6.10
2017-11-20T06:57:24.062Z,6.10
2017-11-20T06:58:28.461Z,6.10
2017-11-20T06:59:34.494Z,6.10
2017-11-20T07:00:39.879Z,6.10
2017-11-20T07:01:44.393Z,6.10
2017-11-20T07:02:49.677Z,6.10
2017-11-20T07:03:54.953Z,6.10
2017-11-20T07:04:59.647Z,6.10
2017-11-20T07:06:04.906Z,6.10
2017-11-20T07:07:15.589Z,6.10
2017-11-20T07:08:21.416Z,6.10
2017-11-20T07:09:25.852Z,6.00
2017-11-20T07:10:30.458Z,6.10
2017-11-20T07:11:35.999Z,6.10
2017-11-20T07:12:43.595Z,6.10
2017-11-20T07:13:48.546Z,6.10
2017-11-20T07:14:53.188Z,6.10
2017-11-20T07:15:57.705Z,6.20
2017-11-20T07:17:02.024Z,6.20
2017-11-20T07:18:06.443Z,6.20
2017-11-20T07:19:17.969Z,6.20
2017-11-20T07:20:22.639Z,6.20
2017-11-20T07:21:27.230Z,6.20
2017-11-20T07:22:33.599Z,6.20
2017-11-20T07:23:50.494Z,6.30
2017-11-20T07:24:55.448Z,6.20
2017-11-20T07:26:08.656Z,6.00
2017-11-20T07:27:21.936Z,5.90
2017-11-20T07:28:35.053Z,5.90
2017-11-20T07:31:54.386Z,6.00
2017-11-20T07:32:59.598Z,6.10
2017-11-20T07:35:16.900Z,6.00
2017-11-20T07:38:34.428Z,6.00
2017-11-20T07:39:38.724Z,6.00
2017-11-20T07:40:51.790Z,6.10
2017-11-20T07:41:56.910Z,6.10
2017-11-20T07:43:02.536Z,6.10
2017-11-20T07:44:07.073Z,6.10
2017-11-20T07:45:11.411Z,6.10
2017-11-20T07:46:15.989Z,6.00
2017-11-20T07:47:21.073Z,5.90
2017-11-20T07:48:25.864Z,5.80
2017-11-20T07:49:30.426Z,5.80
2017-11-20T07:50:35.192Z,5.70
2017-11-20T07:51:40.755Z,5.80
2017-11-20T07:52:45.089Z,5.80
2017-11-20T07:53:50.336Z,5.80
2017-11-20T07:54:56.074Z,5.80
2017-11-20T07:56:01.258Z,5.80
2017-11-20T07:57:05.951Z,5.80
2017-11-20T07:58:10.291Z,5.90
2017-11-20T07:59:14.718Z,5.90
2017-11-20T08:00:19.050Z,5.90
2017-11-20T08:01:24.253Z,5.90
2017-11-20T08:02:29.428Z,5.90
2017-11-20T08:03:33.709Z,5.90
2017-11-20T08:04:38.839Z,6.00
2017-11-20T08:05:44.527Z,6.00
2017-11-20T08:06:48.889Z,6.00
2017-11-20T08:07:53.262Z,6.00
2017-11-20T08:08:57.590Z,6.00
2017-11-20T08:10:02.949Z,5.80
2017-11-20T08:11:07.272Z,5.80
2017-11-20T08:12:11.774Z,5.80
2017-11-20T08:13:16.132Z,5.60
2017-11-20T08:14:20.525Z,5.50
2017-11-20T08:15:25.094Z,5.40
2017-11-20T08:16:29.416Z,5.40
2017-11-20T08:17:36.183Z,5.40
2017-11-20T08:18:42.386Z,5.40
2017-11-20T08:19:48.174Z,5.20
2017-11-20T08:20:52.857Z,5.20
2017-11-20T08:21:57.990Z,5.30
2017-11-20T08:23:02.379Z,5.30
2017-11-20T08:24:06.727Z,5.30
2017-11-20T08:25:11.361Z,5.20
2017-11-20T08:26:15.751Z,5.10
2017-11-20T08:27:20.326Z,5.10
2017-11-20T08:28:26.394Z,4.90
2017-11-20T08:29:31.524Z,4.90
2017-11-20T08:30:36.717Z,5.00
2017-11-20T08:31:41.853Z,5.00
2017-11-20T08:32:47.797Z,5.10
2017-11-20T08:33:52.956Z,5.20
2017-11-20T08:34:58.108Z,5.20
2017-11-20T08:36:03.167Z,5.30
2017-11-20T08:37:08.379Z,5.40
2017-11-20T08:38:13.236Z,5.40
2017-11-20T08:39:18.159Z,5.50
2017-11-20T08:40:22.693Z,5.60
2017-11-20T08:41:27.002Z,5.60
2017-11-20T08:42:31.552Z,5.70
2017-11-20T08:43:36.110Z,5.80
2017-11-20T08:44:41.318Z,5.70
2017-11-20T08:45:46.423Z,5.80
2017-11-20T08:46:50.819Z,5.80
2017-11-20T08:47:55.247Z,5.80
2017-11-20T08:48:59.699Z,5.80
2017-11-20T08:50:04.126Z,5.80
2017-11-20T08:51:09.158Z,5.80
2017-11-20T08:52:13.794Z,5.80
2017-11-20T08:53:18.118Z,5.80
2017-11-20T08:54:22.556Z,5.80
2017-11-20T08:55:27.704Z,5.80
2017-11-20T08:56:32.023Z,5.70
2017-11-20T08:57:36.412Z,5.80
2017-11-20T08:58:40.774Z,5.80
2017-11-20T08:59:45.193Z,5.80
2017-11-20T09:00:49.529Z,5.80
2017-11-20T09:01:54.681Z,5.80
2017-11-20T09:02:58.986Z,5.80
2017-11-20T09:04:03.465Z,5.80
2017-11-20T09:05:08.803Z,5.90
2017-11-20T09:06:13.954Z,5.80
2017-11-20T09:07:18.714Z,5.80
2017-11-20T09:08:23.134Z,5.80
2017-11-20T09:09:27.521Z,5.90
2017-11-20T09:10:32.153Z,6.00
2017-11-20T09:11:36.646Z,6.00
2017-11-20T09:12:41.105Z,6.00
2017-11-20T09:13:46.333Z,6.10
2017-11-20T09:14:51.520Z,6.10
2017-11-20T09:15:56.813Z,6.10
2017-11-20T09:17:01.216Z,6.10
2017-11-20T09:18:06.473Z,6.10
2017-11-20T09:19:10.804Z,6.10
2017-11-20T09:20:15.242Z,6.00
2017-11-20T09:21:20.397Z,6.10
2017-11-20T09:22:24.841Z,6.10
2017-11-20T09:23:29.469Z,6.10
2017-11-20T09:24:33.853Z,6.10
2017-11-20T09:25:38.243Z,6.10
2017-11-20T09:26:43.196Z,6.10
2017-11-20T09:27:47.697Z,6.10
2017-11-20T09:28:52.110Z,6.10
2017-11-20T09:29:56.448Z,6.20
2017-11-20T09:31:01.632Z,6.20
2017-11-20T09:32:05.995Z,6.20
2017-11-20T09:33:11.210Z,6.30
2017-11-20T09:34:16.336Z,6.30
2017-11-20T09:35:20.853Z,6.30
2017-11-20T09:36:25.658Z,6.30
2017-11-20T09:37:30.139Z,6.30
2017-11-20T09:38:34.525Z,6.40
2017-11-20T09:39:38.996Z,6.50
2017-11-20T09:40:43.516Z,6.40
2017-11-20T09:41:48.799Z,6.50
2017-11-20T09:42:53.505Z,6.50
2017-11-20T09:43:58.056Z,6.50
2017-11-20T09:45:02.404Z,6.50
2017-11-20T09:46:07.561Z,6.50
2017-11-20T09:47:12.072Z,6.40
2017-11-20T09:48:16.596Z,6.50
2017-11-20T09:49:21.031Z,6.50
2017-11-20T09:50:25.514Z,6.40
2017-11-20T09:51:29.945Z,6.40
2017-11-20T09:52:34.957Z,6.30
2017-11-20T09:53:39.533Z,6.30
2017-11-20T09:54:44.154Z,6.30
2017-11-20T09:55:48.619Z,6.40
2017-11-20T09:56:52.962Z,6.40
2017-11-20T09:57:57.458Z,6.50
2017-11-20T09:59:02.971Z,6.60
2017-11-20T10:00:08.256Z,6.60
2017-11-20T10:01:12.840Z,6.60
2017-11-20T10:02:19.707Z,6.70
2017-11-20T10:03:26.029Z,6.70
2017-11-20T10:04:30.520Z,6.80
2017-11-20T10:05:34.935Z,6.80
2017-11-20T10:06:39.465Z,6.80
2017-11-20T10:07:44.187Z,6.80
2017-11-20T10:09:04.960Z,6.80
2017-11-20T10:10:12.361Z,6.80
2017-11-20T10:11:22.250Z,6.80
2017-11-20T10:12:36.478Z,6.80
2017-11-20T10:13:41.055Z,6.80
2017-11-20T10:14:45.899Z,6.80
2017-11-20T10:15:50.348Z,6.80
2017-11-20T10:16:54.846Z,6.80
2017-11-20T10:17:59.291Z,6.80
2017-11-20T10:19:03.756Z,6.80
2017-11-20T10:20:08.558Z,6.80
2017-11-20T10:21:13.131Z,6.70
2017-11-20T10:22:17.789Z,6.60
2017-11-20T10:23:23.067Z,6.60
2017-11-20T10:24:27.485Z,6.60
2017-11-20T10:25:32.176Z,6.70
2017-11-20T10:26:36.746Z,6.70
2017-11-20T10:27:41.200Z,6.70
2017-11-20T10:28:45.684Z,6.70
2017-11-20T10:29:50.223Z,6.70
2017-11-20T10:30:54.848Z,6.80
2017-11-20T10:31:59.826Z,6.80
2017-11-20T10:33:09.075Z,6.80
2017-11-20T10:34:13.752Z,6.80
2017-11-20T10:35:19.342Z,6.80
2017-11-20T10:36:23.957Z,6.80
2017-11-20T10:37:28.413Z,6.80
2017-11-20T10:38:33.616Z,6.90
2017-11-20T10:39:39.301Z,6.90
2017-11-20T10:40:43.911Z,6.90
2017-11-20T10:41:48.459Z,6.90
2017-11-20T10:42:53.422Z,6.90
2017-11-20T10:43:58.617Z,6.90
2017-11-20T10:45:03.223Z,6.90
2017-11-20T10:46:07.726Z,6.90
2017-11-20T10:47:12.082Z,6.90
2017-11-20T10:48:17.658Z,6.90
2017-11-20T10:49:22.329Z,7.00
2017-11-20T10:50:27.839Z,7.00
2017-11-20T10:51:32.972Z,7.00
2017-11-20T10:52:37.481Z,7.00
2017-11-20T10:53:41.886Z,6.90
2017-11-20T10:54:46.482Z,6.90
2017-11-20T10:55:50.955Z,6.90
2017-11-20T10:56:56.155Z,6.90
2017-11-20T10:58:00.691Z,6.90
2017-11-20T10:59:06.247Z,6.90
2017-11-20T11:00:11.258Z,6.90
2017-11-20T11:01:17.006Z,7.00
2017-11-20T11:02:22.274Z,7.00
2017-11-20T11:03:26.687Z,7.00
2017-11-20T11:04:31.186Z,7.00
2017-11-20T11:05:35.734Z,7.00
2017-11-20T11:06:40.129Z,7.00
2017-11-20T11:07:46.501Z,7.10
2017-11-20T11:08:51.036Z,7.10
2017-11-20T11:09:56.292Z,7.10
2017-11-20T11:11:00.798Z,7.10
2017-11-20T11:12:05.277Z,7.10
2017-11-20T11:13:10.433Z,7.00
2017-11-20T11:14:14.986Z,7.00
2017-11-20T11:15:19.510Z,7.00
2017-11-20T11:16:24.110Z,7.00
2017-11-20T11:17:29.050Z,7.00
2017-11-20T11:18:33.516Z,7.00
2017-11-20T11:19:38.425Z,7.00
2017-11-20T11:20:43.161Z,7.00
2017-11-20T11:21:47.904Z,7.00
2017-11-20T11:22:52.500Z,7.00
2017-11-20T11:23:57.049Z,7.00
2017-11-20T11:25:01.544Z,7.00
2017-11-20T11:26:06.051Z,7.00
2017-11-20T11:27:10.523Z,7.00
2017-11-20T11:28:15.932Z,7.00
2017-11-20T11:29:21.353Z,7.00
2017-11-20T11:30:26.062Z,6.90
2017-11-20T11:31:32.248Z,6.90
2017-11-20T11:32:38.329Z,7.00
2017-11-20T11:33:43.445Z,7.00
2017-11-20T11:34:48.044Z,7.00
2017-11-20T11:35:52.706Z,7.00
2017-11-20T11:36:57.192Z,7.00
2017-11-20T11:38:04.035Z,7.00
2017-11-20T11:39:08.622Z,6.90
2017-11-20T11:40:13.888Z,6.90
2017-11-20T11:41:18.591Z,6.90
2017-11-20T11:42:23.057Z,6.90
2017-11-20T11:43:28.207Z,7.00
2017-11-20T11:44:33.472Z,6.90
2017-11-20T11:45:38.013Z,7.00
2017-11-20T11:46:42.670Z,6.90
2017-11-20T11:47:48.395Z,6.90
2017-11-20T11:48:53.231Z,6.90
2017-11-20T11:49:58.682Z,7.00
2017-11-20T11:51:03.708Z,7.00
2017-11-20T11:52:08.285Z,6.90
2017-11-20T11:53:12.879Z,6.90
2017-11-20T11:54:17.524Z,6.90
2017-11-20T11:55:22.436Z,7.00
2017-11-20T11:56:28.207Z,7.00
2017-11-20T11:57:33.677Z,7.00
2017-11-20T11:58:38.361Z,7.00
2017-11-20T11:59:43.097Z,7.10
2017-11-20T12:00:48.375Z,7.00
2017-11-20T12:01:54.052Z,7.10
2017-11-20T12:03:17.115Z,7.10
2017-11-20T12:04:22.385Z,7.10
2017-11-20T12:05:27.083Z,7.10
2017-11-20T12:06:31.649Z,7.10
2017-11-20T12:07:36.945Z,7.10
2017-11-20T12:08:41.626Z,7.10
2017-11-20T12:09:46.223Z,7.10
2017-11-20T12:10:50.869Z,7.00
2017-11-20T12:11:55.600Z,7.00
2017-11-20T12:13:00.891Z,7.00
2017-11-20T12:14:05.968Z,7.00
2017-11-20T12:15:11.255Z,7.00
2017-11-20T12:16:15.768Z,7.00
2017-11-20T12:17:20.214Z,7.00
2017-11-20T12:18:24.872Z,7.00
2017-11-20T12:19:29.469Z,7.00
2017-11-20T12:20:34.516Z,7.00
2017-11-20T12:21:39.062Z,7.00
2017-11-20T12:22:43.536Z,7.00
2017-11-20T12:23:48.045Z,7.00
2017-11-20T12:24:52.902Z,7.00
2017-11-20T12:25:57.474Z,7.00
2017-11-20T12:27:01.951Z,7.00
2017-11-20T12:28:07.148Z,7.00
2017-11-20T12:29:11.581Z,7.00
2017-11-20T12:30:16.614Z,7.00
2017-11-20T12:31:21.170Z,7.10
2017-11-20T12:32:25.613Z,7.10
2017-11-20T12:33:30.151Z,7.10
2017-11-20T12:34:34.564Z,7.10
2017-11-20T12:35:39.487Z,7.20
2017-11-20T12:36:44.842Z,7.10
2017-11-20T12:37:50.187Z,7.10
2017-11-20T12:38:54.722Z,7.10
2017-11-20T12:39:59.189Z,7.10
2017-11-20T12:41:04.774Z,7.10
2017-11-20T12:42:09.202Z,7.10
2017-11-20T12:43:13.767Z,7.10
2017-11-20T12:44:18.225Z,7.10
2017-11-20T12:45:22.768Z,7.00
2017-11-20T12:46:28.279Z,7.00
2017-11-20T12:47:32.726Z,7.00
2017-11-20T12:48:37.345Z,7.00
2017-11-20T12:49:41.915Z,7.10
2017-11-20T12:50:46.494Z,7.10
2017-11-20T12:51:51.101Z,7.10
2017-11-20T12:52:55.650Z,7.10
2017-11-20T12:54:00.183Z,7.10
2017-11-20T12:55:05.442Z,7.20
2017-11-20T12:56:09.793Z,7.10
2017-11-20T12:57:14.356Z,7.20
2017-11-20T12:58:18.768Z,7.20
2017-11-20T12:59:23.254Z,7.20
2017-11-20T13:00:28.571Z,7.20
2017-11-20T13:01:33.111Z,7.20
2017-11-20T13:02:38.475Z,7.20
2017-11-20T13:03:43.244Z,7.20
2017-11-20T13:04:48.546Z,7.30
2017-11-20T13:05:53.124Z,7.20
2017-11-20T13:06:57.567Z,7.30
2017-11-20T13:08:01.982Z,7.30
2017-11-20T13:09:06.429Z,7.20
2017-11-20T13:10:11.707Z,7.20
2017-11-20T13:11:16.096Z,7.20
2017-11-20T13:12:20.946Z,7.20
2017-11-20T13:13:25.790Z,7.20
2017-11-20T13:14:31.506Z,7.10
2017-11-20T13:15:36.313Z,7.10
2017-11-20T13:16:40.847Z,7.00
2017-11-20T13:17:45.546Z,7.10
2017-11-20T13:18:50.101Z,7.00
2017-11-20T13:19:54.725Z,7.00
2017-11-20T13:20:59.997Z,6.90
2017-11-20T13:22:04.700Z,6.90
2017-11-20T13:23:09.387Z,6.90
2017-11-20T13:24:14.700Z,6.90
2017-11-20T13:25:19.282Z,6.90
2017-11-20T13:26:23.867Z,6.90
2017-11-20T13:27:28.532Z,6.80
2017-11-20T13:28:33.102Z,6.80
2017-11-20T13:29:37.655Z,6.80
2017-11-20T13:30:42.232Z,6.80
2017-11-20T13:31:46.934Z,6.80
2017-11-20T13:32:52.019Z,6.80
2017-11-20T13:33:56.564Z,6.80
2017-11-20T13:35:01.993Z,6.70
2017-11-20T13:36:07.330Z,6.70
2017-11-20T13:37:11.981Z,6.70
2017-11-20T13:38:16.738Z,6.70
2017-11-20T13:39:21.291Z,6.70
2017-11-20T13:40:25.922Z,6.70
2017-11-20T13:41:30.440Z,6.70
2017-11-20T13:42:34.949Z,6.70
2017-11-20T13:43:39.746Z,6.70
2017-11-20T13:44:44.331Z,6.70
2017-11-20T13:45:49.668Z,6.70
2017-11-20T13:46:54.949Z,6.70
2017-11-20T13:47:59.547Z,6.60
2017-11-20T13:49:04.400Z,6.70
2017-11-20T13:50:09.193Z,6.60
2017-11-20T13:51:14.531Z,6.60
2017-11-20T13:52:19.255Z,6.60
2017-11-20T13:53:23.881Z,6.70
2017-11-20T13:54:28.855Z,6.60
2017-11-20T13:55:33.426Z,6.60
2017-11-20T13:56:38.174Z,6.60
2017-11-20T13:57:42.748Z,6.60
2017-11-20T13:58:47.294Z,6.60
2017-11-20T13:59:52.527Z,6.60
2017-11-20T14:00:57.873Z,6.60
2017-11-20T14:02:02.417Z,6.60
2017-11-20T14:03:07.135Z,6.60
2017-11-20T14:04:12.150Z,6.60
2017-11-20T14:05:17.334Z,6.60
2017-11-20T14:06:22.776Z,6.60
2017-11-20T14:07:28.462Z,6.60
2017-11-20T14:08:33.177Z,6.60
2017-11-20T14:09:38.038Z,6.60
2017-11-20T14:10:43.565Z,6.60
2017-11-20T14:11:49.326Z,6.60
2017-11-20T14:12:54.027Z,6.60
2017-11-20T14:13:59.550Z,6.60
2017-11-20T14:15:04.444Z,6.60
2017-11-20T14:16:09.874Z,6.60
2017-11-20T14:17:14.697Z,6.60
2017-11-20T14:18:20.546Z,6.60
2017-11-20T14:19:25.775Z,6.60
2017-11-20T14:20:31.536Z,6.60
2017-11-20T14:21:37.533Z,6.60
2017-11-20T14:22:42.163Z,6.50
2017-11-20T14:23:47.066Z,6.60
2017-11-20T14:24:53.126Z,6.60
2017-11-20T14:25:58.123Z,6.60
2017-11-20T14:27:02.819Z,6.60
2017-11-20T14:28:08.412Z,6.60
2017-11-20T14:29:13.153Z,6.50
2017-11-20T14:30:18.127Z,6.60
2017-11-20T14:31:24.086Z,6.60
2017-11-20T14:32:32.701Z,6.60
2017-11-20T14:33:37.526Z,6.70
2017-11-20T14:34:43.038Z,6.80
2017-11-20T14:35:48.431Z,6.90
2017-11-20T14:39:00.978Z,7.00
2017-11-20T14:40:05.700Z,7.00
2017-11-20T14:41:10.618Z,7.00
2017-11-20T14:42:15.531Z,7.00
2017-11-20T14:43:20.056Z,7.00
2017-11-20T14:44:24.724Z,7.10
2017-11-20T14:45:29.399Z,7.20
2017-11-20T14:46:35.828Z,7.20
2017-11-20T14:47:40.723Z,7.20
2017-11-20T14:48:45.780Z,7.30
2017-11-20T14:49:50.383Z,7.30